createdAt,value
2022-11-22T00:00:54.251Z,60.95
2022-11-22T00:03:21.036Z,68.47
2022-11-22T00:05:47.825Z,70.50
2022-11-22T00:08:14.707Z,72.90
2022-11-22T00:10:41.545Z,73.95
2022-11-22T00:13:08.621Z,78.95
2022-11-22T00:15:35.448Z,66.82
2022-11-22T00:18:02.244Z,77.75
2022-11-22T00:20:29.495Z,78.35
2022-11-22T00:22:58.165Z,76.35
2022-11-22T00:25:25.031Z,74.45
2022-11-22T00:27:51.827Z,69.70
2022-11-22T00:30:18.713Z,73.28
2022-11-22T00:32:45.539Z,84.25
2022-11-22T00:35:12.869Z,80.43
2022-11-22T00:37:39.662Z,76.28
2022-11-22T00:40:07.345Z,73.55
2022-11-22T00:42:34.227Z,70.95
2022-11-22T00:45:01.293Z,68.07
2022-11-22T00:47:28.104Z,68.55
2022-11-22T00:49:54.892Z,69.05
2022-11-22T00:52:21.717Z,68.38
2022-11-22T00:54:54.309Z,68.97
2022-11-22T00:57:21.547Z,78.38
2022-11-22T00:59:48.372Z,72.75
2022-11-22T01:02:15.238Z,68.30
2022-11-22T01:04:42.102Z,60.65
2022-11-22T01:07:09.943Z,68.60
2022-11-22T01:09:36.825Z,75.95
2022-11-22T01:12:04.005Z,67.90
2022-11-22T01:14:30.827Z,66.63
2022-11-22T01:16:57.637Z,70.97
2022-11-22T01:19:24.528Z,61.55
2022-11-22T01:21:51.412Z,63.42
2022-11-22T01:24:18.196Z,68.03
2022-11-22T01:26:45.046Z,61.63
2022-11-22T01:29:11.804Z,69.47
2022-11-22T01:31:38.572Z,64.15
2022-11-22T01:34:06.313Z,62.08
2022-11-22T01:36:33.233Z,59.38
2022-11-22T01:39:00.047Z,63.50
2022-11-22T01:41:26.889Z,58.75
2022-11-22T01:43:53.655Z,66.38
2022-11-22T01:46:31.605Z,62.22
2022-11-22T01:49:14.512Z,64.93
2022-11-22T01:51:44.752Z,62.05
2022-11-22T01:54:16.278Z,66.47
2022-11-22T01:56:46.728Z,59.60
2022-11-22T01:59:17.468Z,61.58
2022-11-22T02:01:44.464Z,55.20
2022-11-22T02:04:14.385Z,54.38
2022-11-22T02:07:15.065Z,56.28
2022-11-22T02:09:43.466Z,57.55
2022-11-22T02:12:12.077Z,65.47
2022-11-22T02:14:40.284Z,60.90
2022-11-22T02:17:07.086Z,57.70
2022-11-22T02:19:45.054Z,60.25
2022-11-22T02:23:00.947Z,51.75
2022-11-22T02:25:36.841Z,53.70
2022-11-22T02:28:08.881Z,51.08
2022-11-22T02:30:40.516Z,51.50
2022-11-22T02:33:08.213Z,56.33
2022-11-22T02:35:35.370Z,52.10
2022-11-22T02:38:13.203Z,55.17
2022-11-22T02:40:50.815Z,55.08
2022-11-22T02:43:22.128Z,53.40
2022-11-22T02:45:48.945Z,54.78
2022-11-22T02:48:17.887Z,55.25
2022-11-22T02:50:45.696Z,55.17
2022-11-22T02:53:13.416Z,51.65
2022-11-22T02:55:40.482Z,50.58
2022-11-22T02:58:07.365Z,54.35
2022-11-22T03:00:36.394Z,53.67
2022-11-22T03:03:03.371Z,52.47
2022-11-22T03:05:30.247Z,53.10
2022-11-22T03:07:57.009Z,45.47
2022-11-22T03:10:23.790Z,53.08
2022-11-22T03:12:50.676Z,56.25
2022-11-22T03:15:17.687Z,50.10
2022-11-22T03:17:44.520Z,48.95
2022-11-22T03:20:11.674Z,48.53
2022-11-22T03:22:38.444Z,52.55
2022-11-22T03:25:06.013Z,47.58
2022-11-22T03:27:32.872Z,51.08
2022-11-22T03:29:59.624Z,44.97
2022-11-22T03:32:26.383Z,50.33
2022-11-22T03:34:53.144Z,48.13
2022-11-22T03:37:20.039Z,47.22
2022-11-22T03:39:46.817Z,47.83
2022-11-22T03:42:18.134Z,53.65
2022-11-22T03:44:47.989Z,50.05
2022-11-22T03:47:14.810Z,50.45
2022-11-22T03:49:42.198Z,53.58
2022-11-22T03:52:09.199Z,48.67
2022-11-22T03:54:36.089Z,45.53
2022-11-22T03:57:02.896Z,51.22
2022-11-22T03:59:30.090Z,56.50
2022-11-22T04:01:57.177Z,49.75
2022-11-22T04:04:24.111Z,51.05
2022-11-22T04:06:51.016Z,45.67
2022-11-22T04:09:17.812Z,44.05
2022-11-22T04:11:44.617Z,48.65
2022-11-22T04:14:30.925Z,50.72
2022-11-22T04:16:58.025Z,49.38
2022-11-22T04:19:24.829Z,50.05
2022-11-22T04:21:51.602Z,54.53
2022-11-22T04:24:36.821Z,51.92
2022-11-22T04:27:03.656Z,48.90
2022-11-22T04:29:30.580Z,50.13
2022-11-22T04:32:15.877Z,50.70
2022-11-22T04:34:42.649Z,45.08
2022-11-22T04:37:09.514Z,47.72
2022-11-22T04:39:36.310Z,50.97
2022-11-22T04:42:21.974Z,48.33
2022-11-22T04:44:48.765Z,52.70
2022-11-22T04:47:37.779Z,52.08
2022-11-22T04:50:26.528Z,46.75
2022-11-22T04:52:55.371Z,44.72
2022-11-22T04:55:22.951Z,51.72
2022-11-22T04:57:52.074Z,44.45
2022-11-22T05:00:22.863Z,35.27
2022-11-22T05:02:49.625Z,45.75
2022-11-22T05:05:16.461Z,48.50
2022-11-22T05:07:43.247Z,42.15
2022-11-22T05:10:10.615Z,48.40
2022-11-22T05:12:37.424Z,47.70
2022-11-22T05:15:04.663Z,49.53
2022-11-22T05:17:31.427Z,48.40
2022-11-22T05:19:58.213Z,50.08
2022-11-22T05:22:46.261Z,46.42
2022-11-22T05:25:13.125Z,46.05
2022-11-22T05:27:39.927Z,47.17
2022-11-22T05:30:07.754Z,45.38
2022-11-22T05:32:34.560Z,48.90
2022-11-22T05:35:01.311Z,44.40
2022-11-22T05:37:29.063Z,42.88
2022-11-22T05:39:55.947Z,45.05
2022-11-22T05:42:22.821Z,42.72
2022-11-22T05:44:49.593Z,48.67
2022-11-22T05:47:16.375Z,44.65
2022-11-22T05:49:45.955Z,42.00
2022-11-22T05:52:13.082Z,46.83
2022-11-22T05:54:39.901Z,45.17
2022-11-22T05:57:07.148Z,54.53
2022-11-22T05:59:34.077Z,49.63
2022-11-22T06:02:01.011Z,52.20
2022-11-22T06:04:27.829Z,49.67
2022-11-22T06:06:54.581Z,48.95
2022-11-22T06:09:22.763Z,41.63
2022-11-22T06:11:49.539Z,48.80
2022-11-22T06:14:16.416Z,48.00
2022-11-22T06:16:43.299Z,52.30
2022-11-22T06:19:10.266Z,49.63
2022-11-22T06:21:37.067Z,46.08
2022-11-22T06:24:03.921Z,52.17
2022-11-22T06:26:33.519Z,51.67
2022-11-22T06:29:04.726Z,45.30
2022-11-22T06:31:31.579Z,46.40
2022-11-22T06:34:00.267Z,50.50
2022-11-22T06:36:33.203Z,46.47
2022-11-22T06:39:03.440Z,52.15
2022-11-22T06:41:36.749Z,49.42
2022-11-22T06:44:08.895Z,50.67
2022-11-22T06:46:37.150Z,51.22
2022-11-22T06:49:04.375Z,44.20
2022-11-22T06:51:32.497Z,56.05
2022-11-22T06:53:59.777Z,51.10
2022-11-22T06:56:33.031Z,51.05
2022-11-22T06:59:04.248Z,44.00
2022-11-22T07:01:32.841Z,47.80
2022-11-22T07:04:01.289Z,48.70
2022-11-22T07:06:34.933Z,45.20
2022-11-22T07:09:04.127Z,51.30
2022-11-22T07:11:32.414Z,47.58
2022-11-22T07:14:06.895Z,49.03
2022-11-22T07:16:36.709Z,47.78
2022-11-22T07:19:04.853Z,45.15
2022-11-22T07:21:32.494Z,46.00
2022-11-22T07:23:59.312Z,48.15
2022-11-22T07:26:27.311Z,43.33
2022-11-22T07:28:54.090Z,48.00
2022-11-22T07:31:21.227Z,42.60
2022-11-22T07:33:48.355Z,43.03
2022-11-22T07:36:19.246Z,44.08
2022-11-22T07:38:47.760Z,44.88
2022-11-22T07:41:15.893Z,46.17
2022-11-22T07:43:43.010Z,50.17
2022-11-22T07:46:30.962Z,40.28
2022-11-22T07:48:59.147Z,39.63
2022-11-22T07:51:26.240Z,44.80
2022-11-22T07:53:54.411Z,46.58
2022-11-22T07:56:21.275Z,42.47
2022-11-22T07:58:48.298Z,43.78
2022-11-22T08:01:18.446Z,40.78
2022-11-22T08:03:45.986Z,44.17
2022-11-22T08:06:14.645Z,39.75
2022-11-22T08:08:41.621Z,40.45
2022-11-22T08:11:09.137Z,39.70
2022-11-22T08:13:36.583Z,43.78
2022-11-22T08:16:11.390Z,40.22
2022-11-22T08:18:39.531Z,42.38
2022-11-22T08:21:14.317Z,40.33
2022-11-22T08:23:42.420Z,38.08
2022-11-22T08:26:12.505Z,39.15
2022-11-22T08:28:40.456Z,38.83
2022-11-22T08:31:12.316Z,37.25
2022-11-22T08:33:39.656Z,39.30
2022-11-22T08:36:06.905Z,36.28
2022-11-22T08:38:34.282Z,33.35
2022-11-22T08:41:01.092Z,39.05
2022-11-22T08:43:27.859Z,41.63
2022-11-22T08:45:57.251Z,34.05
2022-11-22T08:48:25.946Z,39.00
2022-11-22T08:51:00.850Z,38.72
2022-11-22T08:53:27.965Z,39.22
2022-11-22T08:55:55.366Z,37.20
2022-11-22T08:58:22.948Z,36.22
2022-11-22T09:00:49.972Z,38.42
2022-11-22T09:03:16.748Z,33.03
2022-11-22T09:08:35.900Z,34.80
2022-11-22T09:11:16.844Z,34.08
2022-11-22T09:13:44.498Z,33.58
2022-11-22T09:16:19.623Z,38.10
2022-11-22T09:18:48.173Z,27.70
2022-11-22T09:21:19.455Z,34.33
2022-11-22T09:23:48.574Z,33.10
2022-11-22T09:26:24.435Z,31.98
2022-11-22T09:28:53.233Z,31.95
2022-11-22T09:31:22.367Z,32.08
2022-11-22T09:33:50.266Z,28.85
2022-11-22T09:36:23.518Z,31.88
2022-11-22T09:38:52.194Z,21.37
2022-11-22T09:42:01.892Z,31.48
2022-11-22T09:44:40.502Z,28.10
2022-11-22T09:47:53.729Z,32.97
2022-11-22T09:50:39.435Z,27.95
2022-11-22T09:53:18.778Z,31.02
2022-11-22T09:55:55.539Z,32.17
2022-11-22T09:58:41.959Z,29.30
2022-11-22T10:01:32.992Z,29.35
2022-11-22T10:04:18.761Z,34.17
2022-11-22T10:07:20.625Z,29.10
2022-11-22T10:10:24.979Z,26.83
2022-11-22T10:13:35.931Z,23.38
2022-11-22T10:16:11.473Z,27.27
2022-11-22T10:18:50.049Z,30.23
2022-11-22T10:21:17.856Z,29.23
2022-11-22T10:23:46.850Z,29.23
2022-11-22T10:26:26.442Z,28.45
2022-11-22T10:29:02.858Z,29.20
2022-11-22T10:31:45.621Z,29.83
2022-11-22T10:34:44.880Z,26.95
2022-11-22T10:37:27.436Z,26.77
2022-11-22T10:40:46.567Z,23.25
2022-11-22T10:43:16.350Z,24.80
2022-11-22T10:46:19.132Z,27.23
2022-11-22T10:49:24.381Z,25.85
2022-11-22T10:55:35.178Z,23.13
2022-11-22T10:58:36.421Z,28.25
2022-11-22T11:01:34.598Z,21.40
2022-11-22T11:04:03.925Z,22.25
2022-11-22T11:07:10.404Z,22.35
2022-11-22T11:12:39.499Z,21.23
2022-11-22T11:15:18.274Z,20.92
2022-11-22T11:17:50.889Z,20.27
2022-11-22T11:20:27.840Z,22.95
2022-11-22T11:25:44.685Z,24.30
2022-11-22T11:28:24.455Z,26.88
2022-11-22T11:30:59.019Z,25.80
2022-11-22T11:33:37.628Z,20.35
2022-11-22T11:36:19.161Z,19.95
2022-11-22T11:38:46.040Z,20.77
2022-11-22T11:41:43.161Z,24.50
2022-11-22T11:44:33.836Z,22.10
2022-11-22T11:47:01.216Z,21.02
2022-11-22T11:49:37.705Z,22.50
2022-11-22T11:52:14.432Z,21.35
2022-11-22T11:54:52.535Z,20.25
2022-11-22T11:57:31.158Z,24.98
2022-11-22T12:00:05.716Z,19.52
2022-11-22T12:02:52.104Z,21.80
2022-11-22T12:05:19.172Z,18.52
2022-11-22T12:07:54.052Z,25.92
2022-11-22T12:10:48.957Z,24.02
2022-11-22T12:13:57.732Z,21.38
2022-11-22T12:16:43.168Z,22.67
2022-11-22T12:20:05.971Z,17.15
2022-11-22T12:22:50.988Z,18.73
2022-11-22T12:25:40.310Z,21.08
2022-11-22T12:28:18.012Z,22.75
2022-11-22T12:31:22.395Z,21.83
2022-11-22T12:34:34.360Z,21.93
2022-11-22T12:37:20.726Z,22.17
2022-11-22T12:39:51.772Z,20.10
2022-11-22T12:42:37.762Z,26.00
2022-11-22T12:45:30.191Z,19.40
2022-11-22T12:48:03.737Z,21.40
2022-11-22T12:51:01.097Z,28.00
2022-11-22T12:53:41.123Z,19.20
2022-11-22T12:56:26.154Z,20.25
2022-11-22T12:59:06.634Z,17.70
2022-11-22T13:01:52.714Z,21.33
2022-11-22T13:04:27.269Z,20.67
2022-11-22T13:07:11.835Z,20.75
2022-11-22T13:12:18.039Z,16.52
2022-11-22T13:14:55.850Z,18.45
2022-11-22T13:17:32.613Z,20.88
2022-11-22T13:20:07.879Z,26.95
2022-11-22T13:22:59.830Z,21.08
2022-11-22T13:26:00.567Z,21.55
2022-11-22T13:28:34.099Z,20.42
2022-11-22T13:31:11.601Z,16.25
2022-11-22T13:34:01.646Z,22.70
2022-11-22T13:36:31.151Z,21.05
2022-11-22T13:39:06.556Z,20.60
2022-11-22T13:42:06.443Z,23.52
2022-11-22T13:44:34.801Z,23.27
2022-11-22T13:47:34.823Z,22.48
2022-11-22T13:50:01.833Z,27.98
2022-11-22T13:52:52.723Z,24.08
2022-11-22T13:55:38.803Z,25.88
2022-11-22T13:58:30.050Z,23.98
2022-11-22T14:00:59.782Z,25.48
2022-11-22T14:03:41.379Z,21.58
2022-11-22T14:06:29.720Z,21.35
2022-11-22T14:10:10.652Z,24.67
2022-11-22T14:13:36.089Z,22.05
2022-11-22T14:16:54.012Z,26.63
2022-11-22T14:23:23.904Z,17.85
2022-11-22T14:26:05.137Z,20.95
2022-11-22T14:29:17.298Z,20.60
2022-11-22T14:31:56.892Z,21.40
2022-11-22T14:34:39.607Z,21.15
2022-11-22T14:37:23.393Z,23.23
2022-11-22T14:40:07.612Z,22.88
2022-11-22T14:42:37.523Z,21.33
2022-11-22T14:45:17.419Z,23.67
2022-11-22T14:48:38.947Z,22.63
2022-11-22T14:51:32.666Z,19.85
2022-11-22T14:54:51.914Z,21.60
2022-11-22T14:58:44.405Z,21.25
2022-11-22T15:02:17.895Z,23.58
2022-11-22T15:09:13.158Z,23.60
2022-11-22T15:09:13.454Z,22.80
2022-11-22T15:12:36.073Z,23.17
2022-11-22T16:57:15.462Z,24.67
2022-11-22T16:59:43.600Z,23.33
2022-11-22T17:02:17.211Z,31.35
2022-11-22T17:04:46.077Z,22.50
2022-11-22T17:07:47.967Z,24.42
2022-11-22T17:10:15.213Z,24.63
2022-11-22T17:12:47.286Z,23.17
2022-11-22T17:15:26.432Z,18.83
2022-11-22T17:17:53.547Z,25.13
2022-11-22T17:20:52.715Z,29.15
2022-11-22T17:23:32.439Z,30.05
2022-11-22T17:25:59.758Z,30.20
2022-11-22T17:28:34.169Z,33.10
2022-11-22T17:31:02.825Z,28.13
2022-11-22T17:33:29.697Z,29.80
2022-11-22T17:35:56.717Z,26.45
2022-11-22T17:38:23.609Z,27.40
2022-11-22T17:41:00.606Z,22.55
2022-11-22T17:43:32.929Z,24.30
2022-11-22T17:46:00.171Z,25.98
2022-11-22T17:48:27.179Z,24.02
2022-11-22T17:50:57.437Z,26.63
2022-11-22T17:53:26.789Z,26.33
2022-11-22T17:56:10.598Z,21.58
2022-11-22T17:59:48.934Z,23.65
2022-11-22T18:02:18.721Z,17.73
2022-11-22T18:05:09.901Z,19.15
2022-11-22T18:07:42.167Z,19.67
2022-11-22T18:10:28.273Z,25.38
2022-11-22T18:13:41.379Z,27.35
2022-11-22T18:16:31.725Z,38.83
2022-11-22T18:19:19.636Z,34.63
2022-11-22T18:21:58.485Z,25.33
2022-11-22T18:24:33.720Z,25.45
2022-11-22T18:27:04.240Z,23.95
2022-11-22T18:29:46.624Z,23.08
2022-11-22T18:32:50.097Z,22.77
2022-11-22T18:35:26.514Z,19.52
2022-11-22T18:37:58.766Z,23.23
2022-11-22T18:41:02.083Z,22.85
2022-11-22T18:44:57.663Z,25.45
2022-11-22T18:51:31.077Z,25.88
2022-11-22T18:54:22.888Z,23.65
2022-11-22T18:56:51.705Z,30.23
2022-11-22T18:59:20.449Z,24.23
2022-11-22T19:01:55.901Z,22.73
2022-11-22T19:04:22.903Z,27.15
2022-11-22T19:06:50.001Z,27.02
2022-11-22T19:09:17.157Z,23.23
2022-11-22T19:11:49.802Z,23.20
2022-11-22T19:14:22.382Z,24.15
2022-11-22T19:16:58.021Z,22.45
2022-11-22T19:19:32.295Z,25.10
2022-11-22T19:22:02.770Z,21.30
2022-11-22T19:24:30.686Z,23.35
2022-11-22T19:26:57.951Z,21.80
2022-11-22T19:29:33.832Z,23.08
2022-11-22T19:32:01.107Z,21.58
2022-11-22T19:34:31.698Z,19.02
2022-11-22T19:37:06.969Z,19.73
2022-11-22T19:39:36.574Z,19.77
2022-11-22T19:42:03.609Z,18.45
2022-11-22T19:44:35.734Z,20.55
2022-11-22T19:47:05.588Z,19.30
2022-11-22T19:49:32.661Z,22.80
2022-11-22T19:51:59.750Z,23.23
2022-11-22T19:54:35.225Z,18.67
2022-11-22T19:57:25.932Z,18.83
2022-11-22T19:59:57.198Z,18.77
2022-11-22T20:02:29.548Z,19.88
2022-11-22T20:04:58.506Z,16.17
2022-11-22T20:07:25.460Z,14.23
2022-11-22T20:09:52.667Z,15.50
2022-11-22T20:12:37.292Z,17.80
2022-11-22T20:15:04.658Z,20.75
2022-11-22T20:17:31.773Z,17.75
2022-11-22T20:20:12.358Z,17.73
2022-11-22T20:22:41.870Z,23.48
2022-11-22T20:25:33.124Z,19.77
2022-11-22T20:28:10.611Z,15.20
2022-11-22T20:30:40.869Z,17.00
2022-11-22T20:33:07.916Z,15.90
2022-11-22T20:35:34.756Z,21.27
2022-11-22T20:38:01.614Z,15.80
2022-11-22T20:40:28.560Z,18.02
2022-11-22T20:42:55.459Z,16.90
2022-11-22T20:45:22.652Z,20.85
2022-11-22T20:47:49.791Z,14.63
2022-11-22T20:50:17.285Z,22.75
2022-11-22T20:52:44.286Z,21.42
2022-11-22T20:55:20.293Z,21.50
2022-11-22T20:57:47.342Z,19.33
2022-11-22T21:00:15.291Z,13.95
2022-11-22T21:02:48.186Z,17.02
2022-11-22T21:05:23.710Z,20.60
2022-11-22T21:07:50.602Z,23.23
2022-11-22T21:10:31.410Z,24.42
2022-11-22T21:13:02.457Z,21.60
2022-11-22T21:15:32.832Z,17.48
2022-11-22T21:18:24.805Z,16.50
2022-11-22T21:20:52.563Z,12.98
2022-11-22T21:23:19.447Z,20.92
2022-11-22T21:25:46.745Z,16.38
2022-11-22T21:28:13.820Z,15.07
2022-11-22T21:30:47.860Z,16.90
2022-11-22T21:33:21.388Z,18.52
2022-11-22T21:38:38.368Z,16.98
2022-11-22T21:41:38.027Z,15.38
2022-11-22T21:43:56.669Z,15.38
2022-11-22T21:46:25.002Z,18.25
2022-11-22T21:48:52.176Z,17.10
2022-11-22T21:51:19.143Z,15.23
2022-11-22T21:53:48.921Z,15.77
2022-11-22T21:56:45.481Z,19.00
2022-11-22T21:59:12.598Z,16.20
2022-11-22T22:01:39.554Z,17.60
2022-11-22T22:04:06.421Z,13.75
2022-11-22T22:06:36.485Z,16.20
2022-11-22T22:09:07.963Z,14.40
2022-11-22T22:11:35.065Z,13.13
2022-11-22T22:14:02.230Z,16.65
2022-11-22T22:16:29.603Z,13.07
2022-11-22T22:18:56.618Z,13.82
2022-11-22T22:21:23.487Z,19.83
2022-11-22T22:23:50.469Z,10.23
2022-11-22T22:26:26.226Z,16.35
2022-11-22T22:28:56.080Z,12.25
2022-11-22T22:31:37.364Z,13.95
2022-11-22T22:34:04.357Z,11.93
2022-11-22T22:36:31.308Z,13.77
2022-11-22T22:38:58.189Z,14.18
2022-11-22T22:41:26.483Z,13.65
2022-11-22T22:57:24.788Z,12.55
2022-11-22T22:59:58.501Z,16.88
2022-11-22T23:02:31.026Z,19.63
2022-11-22T23:05:18.715Z,12.40
2022-11-22T23:07:56.457Z,14.95
2022-11-22T23:10:24.525Z,14.82
2022-11-22T23:12:52.006Z,15.48
2022-11-22T23:15:32.954Z,13.23
2022-11-22T23:18:05.558Z,14.60
2022-11-22T23:20:32.295Z,10.32
2022-11-22T23:22:59.051Z,10.35
2022-11-22T23:25:25.847Z,11.10
2022-11-22T23:27:52.634Z,10.10
2022-11-22T23:30:19.401Z,13.70
2022-11-22T23:32:46.169Z,14.25
2022-11-22T23:35:12.925Z,11.32
2022-11-22T23:37:39.697Z,12.25
2022-11-22T23:40:07.169Z,11.35
2022-11-22T23:42:33.925Z,13.05
2022-11-22T23:45:00.705Z,9.15
2022-11-22T23:47:27.485Z,10.23
2022-11-22T23:49:54.238Z,11.20
2022-11-22T23:52:21.023Z,9.80
2022-11-22T23:54:47.854Z,9.25
2022-11-22T23:57:14.633Z,12.35
2022-11-22T23:59:41.394Z,10.48
